Daniel Island, South Carolina
Current Conditions -  °F | °C
As of 2:15 PM on Saturday 25 Oct 2014 (Local Time) from KLRO Reporting Station
Clear Clear  
Wind Chill: 73°   Ceiling: Unl
Heat Index: 73°   Visibility: 10mi
Dew Point: 48°   Wind: 3mph
Humidity: 41%   Direction: 290°WNW
Pressure: 29.97"   Gusts: NA
Location:  32.9577°N, 79.8822°W
Report Text: KLRO 251815Z AUTO 29003KT 10SM CLR 23/09 A2997 RMK AO2 PWINO PNO
Loading
Personal Weather Stations






























Interactive Weather Map
Tropical Storm Tracking
New forecast layout! Learn more

10-Day Weather Forecast

Advertisements
Track Severe Weather on mobile